createdAt,value
2023-02-11T00:01:59.129Z,36.93
2023-02-11T00:07:12.632Z,34.33
2023-02-11T00:12:19.243Z,36.03
2023-02-11T00:22:56.436Z,34.43
2023-02-11T00:28:05.267Z,36.07
2023-02-11T00:33:12.829Z,33.40
2023-02-11T00:38:25.890Z,34.70
2023-02-11T00:43:34.367Z,37.20
2023-02-11T00:48:55.733Z,37.77
2023-02-11T00:54:05.300Z,34.97
2023-02-11T00:59:21.276Z,36.43
2023-02-11T01:04:28.360Z,36.70
2023-02-11T01:14:52.680Z,35.80
2023-02-11T01:19:57.158Z,35.27
2023-02-11T01:25:07.129Z,35.03
2023-02-11T01:30:22.701Z,37.40
2023-02-11T01:35:25.706Z,36.47
2023-02-11T01:40:39.989Z,35.80
2023-02-11T01:45:54.580Z,36.63
2023-02-11T01:51:28.037Z,35.00
2023-02-11T01:57:08.979Z,34.07
2023-02-11T02:02:19.849Z,34.67
2023-02-11T02:08:06.146Z,34.37
2023-02-11T02:13:16.202Z,34.70
2023-02-11T02:18:31.410Z,33.87
2023-02-11T02:24:01.002Z,34.10
2023-02-11T02:29:32.975Z,32.73
2023-02-11T02:35:02.164Z,30.87
2023-02-11T02:40:17.889Z,31.77
2023-02-11T02:45:29.701Z,29.77
2023-02-11T02:50:38.162Z,28.63
2023-02-11T02:56:13.008Z,30.00
2023-02-11T03:01:32.993Z,29.30
2023-02-11T03:06:59.674Z,25.63
2023-02-11T03:12:14.800Z,28.97
2023-02-11T03:17:46.139Z,28.57
2023-02-11T03:23:09.702Z,28.27
2023-02-11T03:34:32.168Z,26.40
2023-02-11T03:39:58.459Z,25.83
2023-02-11T03:45:15.662Z,26.67
2023-02-11T03:50:27.822Z,27.30
2023-02-11T03:55:45.004Z,25.93
2023-02-11T04:00:46.836Z,26.30
2023-02-11T04:05:55.616Z,26.70
2023-02-11T04:11:24.555Z,27.23
2023-02-11T04:16:40.592Z,27.50
2023-02-11T04:27:08.862Z,26.23
2023-02-11T04:32:16.729Z,26.43
2023-02-11T04:37:27.622Z,25.57
2023-02-11T04:42:37.889Z,26.40
2023-02-11T04:47:44.492Z,27.80
2023-02-11T04:52:57.716Z,29.50
2023-02-11T04:57:59.441Z,27.53
2023-02-11T05:03:14.994Z,27.40
2023-02-11T05:08:17.914Z,28.27
2023-02-11T05:13:22.142Z,28.80
2023-02-11T05:18:31.331Z,30.70
2023-02-11T05:23:42.124Z,30.07
2023-02-11T05:28:50.003Z,31.03
2023-02-11T05:34:17.428Z,30.13
2023-02-11T05:39:19.212Z,33.67
2023-02-11T05:45:00.519Z,31.47
2023-02-11T05:50:13.218Z,34.70
2023-02-11T05:55:43.668Z,34.30
2023-02-11T06:00:56.698Z,34.53
2023-02-11T06:06:07.604Z,35.20
2023-02-11T06:11:11.881Z,37.33
2023-02-11T06:16:24.703Z,37.43
2023-02-11T06:26:47.669Z,37.90
2023-02-11T06:32:39.479Z,38.70
2023-02-11T06:37:49.491Z,39.83
2023-02-11T06:42:51.240Z,39.50
2023-02-11T06:48:14.460Z,38.93
2023-02-11T06:53:26.971Z,40.07
2023-02-11T06:58:40.840Z,40.93
2023-02-11T07:04:00.002Z,41.93
2023-02-11T07:09:02.009Z,39.90
2023-02-11T07:14:09.040Z,40.07
2023-02-11T07:19:10.928Z,40.27
2023-02-11T07:24:13.434Z,39.97
2023-02-11T07:29:25.318Z,43.43
2023-02-11T07:34:34.056Z,41.30
2023-02-11T07:39:41.646Z,45.20
2023-02-11T07:44:43.655Z,43.00
2023-02-11T07:49:50.618Z,41.77
2023-02-11T08:00:10.794Z,41.90
2023-02-11T08:05:15.546Z,41.10
2023-02-11T08:10:20.088Z,43.17
2023-02-11T08:15:31.316Z,46.40
2023-02-11T08:20:57.210Z,43.03
2023-02-11T08:26:04.955Z,43.43
2023-02-11T08:31:27.058Z,46.17
2023-02-11T08:36:40.763Z,45.73
2023-02-11T08:41:50.677Z,47.53
2023-02-11T08:46:57.925Z,46.60
2023-02-11T08:52:10.797Z,45.70
2023-02-11T08:57:15.556Z,46.23
2023-02-11T09:02:47.745Z,45.13
2023-02-11T09:07:54.224Z,47.27
2023-02-11T09:13:03.258Z,47.13
2023-02-11T09:18:06.038Z,45.90
2023-02-11T09:23:10.918Z,47.47
2023-02-11T09:28:49.285Z,48.00
2023-02-11T09:33:57.651Z,46.20
2023-02-11T09:39:18.573Z,48.87
2023-02-11T09:44:52.521Z,46.10
2023-02-11T09:50:38.729Z,45.73
2023-02-11T09:55:49.876Z,45.73
2023-02-11T10:01:20.054Z,44.90
2023-02-11T10:07:17.095Z,44.23
2023-02-11T10:12:37.032Z,45.00
2023-02-11T10:18:13.175Z,42.77
2023-02-11T10:23:56.138Z,47.63
2023-02-11T10:35:30.758Z,42.63
2023-02-11T10:40:39.892Z,45.30
2023-02-11T10:46:18.418Z,42.93
2023-02-11T10:51:44.480Z,42.83
2023-02-11T10:57:24.514Z,41.20
2023-02-11T11:03:09.850Z,40.87
2023-02-11T11:08:19.203Z,53.10
2023-02-11T11:15:09.365Z,41.37
2023-02-11T11:32:15.317Z,39.10
2023-02-11T11:37:42.313Z,38.13
2023-02-11T11:43:03.885Z,35.43
2023-02-11T11:48:17.650Z,35.63
2023-02-11T11:53:42.096Z,38.07
2023-02-11T11:59:11.844Z,37.27
2023-02-11T12:11:08.812Z,34.57
2023-02-11T12:17:21.688Z,34.77
2023-02-11T12:22:44.309Z,32.63
2023-02-11T12:28:20.115Z,34.20
2023-02-11T12:34:54.695Z,32.93
2023-02-11T12:46:12.843Z,32.47
2023-02-11T12:57:12.889Z,30.70
2023-02-11T13:03:22.991Z,31.03
2023-02-11T13:09:33.896Z,31.23
2023-02-11T13:15:14.827Z,32.77
2023-02-11T13:20:57.382Z,29.43
2023-02-11T13:26:32.710Z,29.60
2023-02-11T13:31:56.841Z,42.57
2023-02-11T13:37:05.582Z,37.33
2023-02-11T13:49:20.506Z,29.20
2023-02-11T13:54:42.597Z,29.63
2023-02-11T14:06:21.453Z,28.93
2023-02-11T14:12:34.242Z,28.37
2023-02-11T14:17:54.348Z,28.07
2023-02-11T14:23:01.554Z,34.47
2023-02-11T14:34:42.107Z,28.37
2023-02-11T14:39:59.922Z,25.33
2023-02-11T14:45:25.815Z,25.97
2023-02-11T14:51:01.506Z,28.10
2023-02-11T15:02:08.722Z,27.23
2023-02-11T15:07:23.155Z,26.50
2023-02-11T15:12:41.462Z,28.10
2023-02-11T15:19:30.348Z,26.03
2023-02-11T15:23:45.082Z,25.47
2023-02-11T15:34:47.061Z,24.30
2023-02-11T15:39:54.571Z,27.13
2023-02-11T15:45:29.080Z,24.37
2023-02-11T15:50:39.706Z,24.77
2023-02-11T15:56:08.515Z,25.33
2023-02-11T16:01:33.525Z,24.33
2023-02-11T16:07:03.151Z,23.90
2023-02-11T16:12:48.429Z,24.37
2023-02-11T16:18:07.944Z,22.73
2023-02-11T16:23:57.043Z,23.23
2023-02-11T16:34:41.075Z,25.47
2023-02-11T16:39:54.422Z,26.83
2023-02-11T16:57:15.286Z,24.27
2023-02-11T17:02:42.788Z,26.30
2023-02-11T17:12:58.441Z,27.40
2023-02-11T17:18:09.584Z,26.43
2023-02-11T17:23:14.021Z,26.70
2023-02-11T17:28:24.918Z,26.90
2023-02-11T17:33:29.576Z,28.70
2023-02-11T17:38:41.387Z,26.03
2023-02-11T17:44:03.905Z,28.40
2023-02-11T17:49:24.901Z,28.90
2023-02-11T17:54:28.857Z,28.17
2023-02-11T17:59:45.580Z,31.03
2023-02-11T18:04:47.688Z,29.17
2023-02-11T18:09:57.666Z,29.83
2023-02-11T18:15:12.649Z,29.43
2023-02-11T18:20:37.137Z,28.17
2023-02-11T18:25:47.854Z,27.83
2023-02-11T18:31:03.798Z,30.40
2023-02-11T18:36:18.744Z,27.77
2023-02-11T18:41:34.058Z,28.40
2023-02-11T18:46:48.521Z,28.90
2023-02-11T18:52:21.269Z,29.83
2023-02-11T18:57:43.647Z,28.87
2023-02-11T19:02:48.605Z,25.43
2023-02-11T19:08:23.740Z,29.90
2023-02-11T19:13:37.276Z,30.10
2023-02-11T19:18:52.809Z,28.57
2023-02-11T19:29:34.632Z,29.57
2023-02-11T19:34:49.335Z,29.17
2023-02-11T19:39:56.663Z,29.13
2023-02-11T19:50:27.122Z,28.63
2023-02-11T19:55:37.291Z,29.07
2023-02-11T20:00:45.213Z,30.53
2023-02-11T20:05:56.920Z,29.53
2023-02-11T20:11:23.335Z,29.60
2023-02-11T20:16:48.671Z,31.33
2023-02-11T20:22:09.748Z,29.63
2023-02-11T20:27:38.268Z,29.37
2023-02-11T20:32:40.069Z,29.93
2023-02-11T20:38:08.709Z,29.13
2023-02-11T20:43:36.979Z,31.07
2023-02-11T20:49:10.538Z,29.87
2023-02-11T21:01:18.484Z,30.70
2023-02-11T21:06:45.095Z,28.93
2023-02-11T21:13:37.414Z,31.20
2023-02-11T21:18:42.890Z,29.87
2023-02-11T21:23:54.639Z,31.07
2023-02-11T21:28:59.908Z,29.57
2023-02-11T21:34:20.663Z,31.33
2023-02-11T21:39:28.069Z,30.27
2023-02-11T21:44:45.606Z,31.03
2023-02-11T21:49:47.638Z,29.57
2023-02-11T21:55:12.521Z,30.67
2023-02-11T22:00:26.385Z,31.40
2023-02-11T22:05:36.474Z,32.40
2023-02-11T22:10:48.250Z,30.50
2023-02-11T22:16:01.059Z,31.50
2023-02-11T22:21:11.316Z,31.10
2023-02-11T22:26:44.108Z,30.93
2023-02-11T22:31:54.370Z,30.73
2023-02-11T22:37:13.246Z,30.37
2023-02-11T22:42:21.151Z,32.03
2023-02-11T22:47:28.178Z,30.17
2023-02-11T22:52:53.520Z,32.57
2023-02-11T22:58:24.414Z,30.67
2023-02-11T23:09:00.228Z,29.93
2023-02-11T23:14:18.104Z,30.73
2023-02-11T23:19:28.402Z,29.07
2023-02-11T23:24:30.152Z,30.80
2023-02-11T23:29:48.901Z,32.57
2023-02-11T23:34:55.931Z,30.33
2023-02-11T23:40:09.009Z,29.53
2023-02-11T23:52:16.494Z,28.47
2023-02-11T23:57:18.848Z,29.73
